Hauptseite
METAR-TAF:

METAR-TAF

Flughäfen :

Flugplatz Schwäbisch Hall-Hessental (Adolf Würth Airport)

Schwäbisch Hall, Deutschland

Breite: 49-07-06N, Länge: 9-47-02E, Höhe: 398 m

Beobachtung

Neuester Wetterbericht von vor 53 Minuten, um 23:20 UTC
Wind 5 kt aus Ost
Temperatur -3°C
Luftfeuchtigkeit 100%
Luftdruck 1037 hPa
Sichtweite 10 km oder mehr

METAR: EDTY 042320Z AUTO 08005KT 9999 // FEW043/// M03/M03 Q1037

Zeit: 01:13 (00:13 UTC)

Prognose

Neuester Wetterbericht von vor 7 Stunden und 13 Minuten, um 17:00 UTC
Gültige Prognose vom 04 um 18 UTC bis 05 um 03 UTC
Wind 3 kt aus Nord/Nordost
Sichtweite 10 km oder mehr
Leicht bewölkt in der Höhe von 2500 ft
Durchbrochene Bewölkung in der Höhe von 4000 ft
Wahrscheinlichkeit 30% :
Zeitweise
vom 05 um 01 UTC bis 05 um 03 UTC
Sichtweite: 3000 m
feuchter Dunst

TAF: EDTY 041700Z 0418/0503 03003KT 9999 FEW025 BKN040 PROB30 TEMPO 0501/0503 3000 BR

Wetterbeobachtungen und Prognosen von mehr als 4000 Flughäfen (METAR und TAF Bericht).

Die verfügbaren Stationen werden durch gelbe und rote Markierungen auf der Karte dargestellt.

Führen Sie die Maus auf sie, um den Namen der Station zu sehen.

Darauf klicken, um die Beobachtung von Wetterbeobachtungen und Prognosen zu sehen.

Um die Karte zu ändern : klicken Sie auf den grünen Tasten mit einem schwarzen Kreuz Zum Vergrößern, auf den grünen Button mit einem Gedankenstrich zu verkleinern, oder auf die grünen Pfeile für benachbarte Karten.


METAR-TAF: